Time;durP1;ratioP1;P1;durP2;ratioP2;P2;SDS_P1;SDS_P2;PMS_P1;PMS_P2;Temp;Humidity;BMP_temperature;BMP_pressure;BME280_temperature;BME280_humidity;BME280_pressure;Samples;Min_cycle;Max_cycle;Signal;HPM_P1;HPM_P2
2022/02/08 00:01:59;;;;;;;8.73;3.10;;;154.20;1740.80;;;;;;5050804;28;20128;-57
2022/02/08 00:04:37;;;;;;;10.77;3.55;;;154.10;1715.20;;;;;;5053027;28;20250;-57
2022/02/08 00:07:10;;;;;;;7.93;2.92;;;154.10;1740.80;;;;;;5053007;28;20158;-57
2022/02/08 00:09:38;;;;;;;10.82;3.45;;;154.10;1715.20;;;;;;5052717;28;20112;-57
2022/02/08 00:12:10;;;;;;;8.52;3.47;;;154.10;1740.80;;;;;;5052810;28;20041;-57
2022/02/08 00:14:41;;;;;;;10.05;3.00;;;154.10;1740.80;;;;;;5052540;28;20035;-57
2022/02/08 00:17:12;;;;;;;6.30;2.65;;;154.10;1715.20;;;;;;5052164;28;20045;-57
2022/02/08 00:19:38;;;;;;;8.23;3.00;;;154.10;1740.80;;;;;;5052695;28;20108;-57
2022/02/08 00:22:10;;;;;;;11.38;3.08;;;154.10;1715.20;;;;;;5052711;28;20111;-57
2022/02/08 00:24:39;;;;;;;7.70;3.08;;;154.10;1740.80;;;;;;5052336;28;20498;-57
2022/02/08 00:27:10;;;;;;;10.45;3.38;;;154.20;1740.80;;;;;;5052410;28;20104;-57
2022/02/08 00:29:40;;;;;;;7.65;2.85;;;154.10;1740.80;;;;;;5052210;28;20525;-60
2022/02/08 00:32:11;;;;;;;8.00;2.88;;;154.10;1740.80;;;;;;5052068;28;20063;-58
2022/02/08 00:34:42;;;;;;;8.68;3.10;;;154.20;1740.80;;;;;;5051910;28;20028;-57
2022/02/08 00:37:13;;;;;;;8.52;2.75;;;154.20;1740.80;;;;;;5061826;28;20033;-57
2022/02/08 00:39:42;;;;;;;8.25;3.50;;;154.10;1715.20;;;;;;5074133;28;20036;-57
2022/02/08 00:42:13;;;;;;;7.72;2.78;;;154.20;1740.80;;;;;;5074357;28;20024;-57
2022/02/08 00:45:05;;;;;;;13.15;3.20;;;154.20;1715.20;;;;;;5073930;28;20040;-57
2022/02/08 00:47:40;;;;;;;8.95;3.42;;;154.20;1715.20;;;;;;5073962;28;20459;-57
2022/02/08 00:50:12;;;;;;;10.57;3.30;;;154.20;1715.20;;;;;;5074112;28;20071;-57
2022/02/08 00:52:43;;;;;;;12.30;3.15;;;154.10;1715.20;;;;;;5074015;28;20049;-57
2022/02/08 00:55:18;;;;;;;8.68;2.80;;;154.10;1740.80;;;;;;5073982;28;20032;-57
2022/02/08 00:57:44;;;;;;;10.35;3.00;;;154.10;1740.80;;;;;;5073685;28;20029;-57
2022/02/08 01:00:16;;;;;;;10.15;3.22;;;154.10;1740.80;;;;;;5073806;28;20041;-59
2022/02/08 01:02:48;;;;;;;11.98;3.08;;;154.10;1740.80;;;;;;5074002;28;20029;-58
2022/02/08 01:05:19;;;;;;;7.97;2.50;;;154.10;1740.80;;;;;;5073846;28;20056;-57
2022/02/08 01:07:48;;;;;;;8.90;3.00;;;154.10;1740.80;;;;;;5073783;28;20024;-57
2022/02/08 01:10:22;;;;;;;9.00;3.35;;;154.10;1715.20;;;;;;5073730;28;20466;-58
2022/02/08 01:12:54;;;;;;;9.43;3.15;;;154.10;1715.20;;;;;;5073775;28;20025;-57
2022/02/08 01:15:26;;;;;;;5.72;2.70;;;154.10;1715.20;;;;;;5073603;28;20028;-56
2022/02/08 01:17:58;;;;;;;7.07;2.95;;;154.10;1715.20;;;;;;5073604;28;20451;-57
2022/02/08 01:20:37;;;;;;;6.63;3.30;;;154.10;1715.20;;;;;;5073788;28;20032;-57
2022/02/08 01:23:10;;;;;;;9.40;3.10;;;154.00;1715.20;;;;;;5073413;28;20493;-57
2022/02/08 01:25:47;;;;;;;10.07;3.25;;;154.10;1740.80;;;;;;5073323;28;20036;-57
2022/02/08 01:28:30;;;;;;;8.63;3.03;;;154.10;1715.20;;;;;;5073495;28;20146;-57
2022/02/08 01:31:04;;;;;;;8.02;2.80;;;154.00;1715.20;;;;;;5073369;28;20033;-57
2022/02/08 01:39:19;;;;;;;9.20;3.80;;;154.00;1715.20;;;;;;5073756;28;20406;-57
2022/02/08 01:42:00;;;;;;;7.53;2.53;;;154.00;1715.20;;;;;;5072474;28;20094;-57
2022/02/08 01:44:45;;;;;;;11.35;3.42;;;153.90;1715.20;;;;;;5073226;28;20025;-57
2022/02/08 01:47:48;;;;;;;11.70;3.42;;;153.90;1740.80;;;;;;5075952;28;20409;-57
2022/02/08 01:50:20;;;;;;;9.90;2.60;;;153.90;1715.20;;;;;;5077576;28;20024;-57
2022/02/08 01:52:48;;;;;;;12.00;3.38;;;153.90;1715.20;;;;;;5077606;28;20029;-57
2022/02/08 01:55:20;;;;;;;9.32;2.75;;;153.90;1715.20;;;;;;5077670;28;20420;-57
2022/02/08 01:57:51;;;;;;;10.95;2.38;;;153.90;1715.20;;;;;;5077526;28;20024;-57
2022/02/08 02:00:24;;;;;;;11.98;2.75;;;153.90;1715.20;;;;;;5077475;28;20029;-57
2022/02/08 02:02:56;;;;;;;12.63;2.97;;;153.80;1740.80;;;;;;5077229;28;20545;-57
2022/02/08 02:05:26;;;;;;;7.32;2.47;;;153.80;1740.80;;;;;;5076973;28;20035;-57
2022/02/08 02:07:59;;;;;;;13.30;3.65;;;153.90;1740.80;;;;;;5077346;28;20024;-57
2022/02/08 02:10:31;;;;;;;5.72;2.63;;;153.90;1715.20;;;;;;5077124;28;20029;-57
2022/02/08 02:13:09;;;;;;;8.70;2.55;;;153.90;1715.20;;;;;;5077136;28;20052;-57
2022/02/08 02:15:41;;;;;;;10.65;2.92;;;153.90;1715.20;;;;;;5076965;28;20111;-57
2022/02/08 02:18:11;;;;;;;7.13;2.15;;;153.90;1740.80;;;;;;5077080;28;20021;-57
2022/02/08 02:20:42;;;;;;;6.90;2.70;;;153.80;1740.80;;;;;;5077186;28;20097;-57
2022/02/08 02:23:14;;;;;;;10.02;2.75;;;153.80;1740.80;;;;;;5076821;28;20439;-58
2022/02/08 02:25:45;;;;;;;8.60;2.42;;;153.80;1740.80;;;;;;5076605;28;20029;-58
2022/02/08 02:28:17;;;;;;;7.80;2.60;;;153.80;1740.80;;;;;;5076831;28;20078;-56
2022/02/08 02:30:48;;;;;;;8.20;2.65;;;153.80;1740.80;;;;;;5076862;28;20070;-57
2022/02/08 02:33:20;;;;;;;7.35;2.58;;;153.80;1740.80;;;;;;5076493;28;20052;-57
2022/02/08 02:35:54;;;;;;;8.38;2.83;;;153.80;1740.80;;;;;;5076403;28;20510;-58
2022/02/08 02:38:25;;;;;;;6.47;2.50;;;153.80;1740.80;;;;;;5076699;28;20378;-57
2022/02/08 02:40:54;;;;;;;9.90;2.80;;;153.80;1740.80;;;;;;5076217;28;20024;-57
2022/02/08 02:43:29;;;;;;;10.48;2.85;;;153.80;1740.80;;;;;;5076674;28;20367;-56
2022/02/08 02:46:00;;;;;;;;;;;153.80;1740.80;;;;;;5076868;28;20082;-57
2022/02/08 02:48:32;;;;;;;9.70;2.75;;;153.80;1740.80;;;;;;5076504;28;20278;-58
2022/02/08 02:51:04;;;;;;;8.07;2.63;;;153.70;1740.80;;;;;;5076507;28;20031;-57
2022/02/08 02:53:35;;;;;;;11.27;3.55;;;153.70;1740.80;;;;;;5076468;28;20382;-57
2022/02/08 02:56:07;;;;;;;5.53;2.78;;;153.80;1740.80;;;;;;5076322;28;20040;-57
2022/02/08 02:58:39;;;;;;;15.20;4.38;;;153.80;1740.80;;;;;;5075858;28;20060;-57
2022/02/08 03:03:51;;;;;;;14.15;2.70;;;153.70;1740.80;;;;;;5076561;28;20028;-57
2022/02/08 03:20:34;;;;;;;6.88;2.40;;;153.70;1740.80;;;;;;5075894;28;20086;-57
2022/02/08 03:23:05;;;;;;;9.02;2.63;;;153.60;1740.80;;;;;;5075739;28;20068;-57
2022/02/08 03:25:35;;;;;;;7.40;2.80;;;153.70;1740.80;;;;;;5075789;28;20426;-56
2022/02/08 03:28:07;;;;;;;8.07;2.25;;;153.70;1740.80;;;;;;5075839;28;20024;-56
2022/02/08 03:30:39;;;;;;;7.22;2.63;;;153.70;1740.80;;;;;;5075513;28;20469;-57
2022/02/08 03:33:10;;;;;;;7.13;2.15;;;153.70;1740.80;;;;;;5075533;28;20048;-57
2022/02/08 03:35:39;;;;;;;9.85;2.80;;;153.70;1740.80;;;;;;5075407;28;20035;-57
2022/02/08 03:38:13;;;;;;;9.82;2.63;;;153.70;1740.80;;;;;;5075620;28;20043;-57
2022/02/08 03:40:51;;;;;;;9.18;2.53;;;153.70;1740.80;;;;;;5075401;28;20024;-57
2022/02/08 03:45:58;;;;;;;9.70;2.20;;;153.70;1740.80;;;;;;5075547;28;20421;-57
2022/02/08 03:48:32;;;;;;;7.90;4.00;;;153.70;1740.80;;;;;;5075140;28;20021;-57
2022/02/08 03:51:13;;;;;;;7.60;2.72;;;153.70;1715.20;;;;;;5075370;28;20032;-57
2022/02/08 03:53:49;;;;;;;11.38;2.28;;;153.70;1740.80;;;;;;5075158;28;20110;-57
2022/02/08 03:56:21;;;;;;;9.10;2.50;;;153.60;1715.20;;;;;;5074658;28;20031;-57
2022/02/08 03:58:57;;;;;;;7.93;2.10;;;153.60;1715.20;;;;;;5074992;28;20029;-57
2022/02/08 04:07:15;;;;;;;10.75;2.88;;;153.60;1740.80;;;;;;5074809;28;20106;-57
2022/02/08 04:09:44;;;;;;;11.48;3.22;;;153.60;1715.20;;;;;;5073904;28;20048;-57
2022/02/08 04:12:22;;;;;;;9.32;3.45;;;153.60;1740.80;;;;;;5074694;28;20471;-57
2022/02/08 04:15:13;;;;;;;10.48;3.80;;;153.60;1715.20;;;;;;5074955;28;20028;-57
2022/02/08 04:50:36;;;;;;;10.52;2.85;;;128.90;1740.80;;;;;;4973697;28;20066;-57
2022/02/08 04:53:14;;;;;;;8.32;3.47;;;128.90;1740.80;;;;;;4973235;28;20066;-57
2022/02/08 04:58:58;;;;;;;10.73;3.00;;;128.90;1715.20;;;;;;4915742;29;20142;-57
2022/02/08 05:01:51;;;;;;;13.23;3.47;;;128.90;1715.20;;;;;;4915721;28;20044;-57
2022/02/08 05:27:27;;;;;;;13.63;3.90;;;128.70;1740.80;;;;;;4992200;28;20103;-57
2022/02/08 05:44:03;;;;;;;17.98;5.05;;;128.60;1740.80;;;;;;4972753;28;20077;-57
2022/02/08 05:49:13;;;;;;;16.20;6.55;;;128.60;1740.80;;;;;;4972667;28;20110;-57
2022/02/08 05:51:58;;;;;;;9.52;4.15;;;128.60;1740.80;;;;;;4972441;28;20124;-57
2022/02/08 05:54:30;;;;;;;11.02;3.65;;;128.60;1740.80;;;;;;4972646;28;20035;-56
2022/02/08 05:57:01;;;;;;;15.13;4.35;;;128.60;1740.80;;;;;;4972605;28;20047;-57
2022/02/08 05:59:32;;;;;;;14.32;3.95;;;128.60;1766.40;;;;;;4972375;28;20027;-57
2022/02/08 06:02:03;;;;;;;14.10;4.13;;;128.60;1740.80;;;;;;4972357;28;20035;-57
2022/02/08 06:04:36;;;;;;;12.00;5.05;;;128.60;1740.80;;;;;;4972592;28;20046;-57
2022/02/08 06:07:08;;;;;;;22.08;6.60;;;128.60;1740.80;;;;;;4972474;28;20073;-57
2022/02/08 06:09:39;;;;;;;19.75;7.18;;;128.50;1740.80;;;;;;5025798;28;20526;-57
2022/02/08 06:12:11;;;;;;;20.20;7.20;;;128.50;1740.80;;;;;;5073328;28;20056;-57
2022/02/08 06:14:44;;;;;;;17.60;7.28;;;128.50;1740.80;;;;;;5073808;28;20029;-57
2022/02/08 06:17:16;;;;;;;15.88;7.03;;;128.50;1766.40;;;;;;5073153;28;20493;-57
2022/02/08 06:19:47;;;;;;;12.75;5.07;;;128.50;1740.80;;;;;;5073262;28;20024;-57
2022/02/08 06:22:19;;;;;;;17.10;5.85;;;128.50;1740.80;;;;;;5073079;28;20027;-57
2022/02/08 06:24:53;;;;;;;18.48;7.20;;;128.50;1766.40;;;;;;5072885;28;20059;-57
2022/02/08 06:27:29;;;;;;;17.13;7.32;;;128.50;1740.80;;;;;;5073126;28;20080;-57
2022/02/08 06:30:00;;;;;;;21.15;7.00;;;128.60;1740.80;;;;;;5072702;28;20029;-56
2022/02/08 06:32:33;;;;;;;22.65;7.25;;;128.60;1740.80;;;;;;5074019;28;20040;-57
2022/02/08 06:35:13;;;;;;;20.40;7.13;;;128.50;1740.80;;;;;;5076727;28;20483;-57
2022/02/08 06:37:44;;;;;;;16.00;6.22;;;128.50;1740.80;;;;;;5076891;28;20052;-58
2022/02/08 06:40:16;;;;;;;23.85;8.00;;;128.40;1766.40;;;;;;5076549;28;20024;-56
2022/02/08 06:42:48;;;;;;;22.75;8.38;;;128.50;1766.40;;;;;;5076532;28;20024;-57
2022/02/08 06:45:18;;;;;;;23.25;9.82;;;128.50;1740.80;;;;;;5076419;28;20471;-57
2022/02/08 06:47:52;;;;;;;21.92;10.68;;;128.60;1740.80;;;;;;5076803;28;20370;-56
2022/02/08 06:50:24;;;;;;;18.58;9.50;;;128.60;1740.80;;;;;;5076797;28;20024;-57
2022/02/08 06:52:56;;;;;;;20.90;9.07;;;128.50;1766.40;;;;;;5076449;28;20040;-57
2022/02/08 06:55:28;;;;;;;20.58;7.63;;;128.60;1740.80;;;;;;5076241;28;20025;-57
2022/02/08 06:58:08;;;;;;;23.77;8.85;;;128.50;1766.40;;;;;;5076226;28;20035;-57
2022/02/08 07:00:43;;;;;;;22.70;9.20;;;128.60;1766.40;;;;;;5076018;28;20024;-57
2022/02/08 07:03:15;;;;;;;21.58;8.27;;;128.60;1766.40;;;;;;5076008;28;20364;-57
2022/02/08 07:05:44;;;;;;;23.63;8.38;;;128.60;1766.40;;;;;;5076153;28;20040;-56
2022/02/08 07:08:11;;;;;;;17.50;8.05;;;128.70;1740.80;;;;;;5076168;28;20029;-57
2022/02/08 07:10:42;;;;;;;18.63;7.35;;;128.80;1740.80;;;;;;5075968;28;20390;-57
2022/02/08 07:13:08;;;;;;;17.95;6.93;;;128.80;1740.80;;;;;;5080766;28;20020;-57
2022/02/08 07:15:35;;;;;;;15.90;7.00;;;128.80;1740.80;;;;;;5116293;28;20022;-57
2022/02/08 07:18:02;;;;;;;19.38;7.88;;;128.90;1740.80;;;;;;5116585;28;20024;-62
2022/02/08 07:20:31;;;;;;;27.98;11.23;;;128.80;1740.80;;;;;;5116479;28;20326;-57
2022/02/08 07:22:57;;;;;;;28.15;11.73;;;128.90;1740.80;;;;;;5116565;28;20020;-56
2022/02/08 07:25:23;;;;;;;21.52;10.75;;;128.80;1740.80;;;;;;5101248;28;20053;-56
2022/02/08 07:27:49;;;;;;;22.65;10.32;;;128.90;1740.80;;;;;;5105790;28;20038;-56
2022/02/08 07:30:14;;;;;;;25.30;10.88;;;128.90;1740.80;;;;;;5104645;28;20027;-58
2022/02/08 07:32:46;;;;;;;27.45;10.48;;;153.60;1740.80;;;;;;5106005;28;20035;-57
2022/02/08 07:35:30;;;;;;;22.08;9.30;;;153.60;1740.80;;;;;;5095846;28;20067;-58
2022/02/08 07:38:19;;;;;;;31.13;8.63;;;153.60;1740.80;;;;;;5095730;28;20468;-56
2022/02/08 07:43:25;;;;;;;20.90;8.38;;;153.70;1740.80;;;;;;5095152;28;20378;-58
2022/02/08 07:45:57;;;;;;;23.88;9.07;;;153.70;1740.80;;;;;;5095058;28;20495;-57
2022/02/08 07:48:29;;;;;;;21.45;8.88;;;153.70;1740.80;;;;;;5095102;28;20085;-57
2022/02/08 07:51:00;;;;;;;22.55;8.82;;;153.80;1740.80;;;;;;5095574;28;20355;-57
2022/02/08 07:53:30;;;;;;;20.42;9.60;;;153.90;1715.20;;;;;;5095349;28;20020;-57
2022/02/08 07:56:02;;;;;;;25.38;9.15;;;153.90;1715.20;;;;;;5095154;28;20035;-57
2022/02/08 07:58:33;;;;;;;22.13;8.90;;;153.90;1715.20;;;;;;5095459;28;20095;-58
2022/02/08 08:01:08;;;;;;;28.33;9.38;;;154.00;1715.20;;;;;;5095172;28;20036;-57
2022/02/08 08:03:46;;;;;;;32.40;9.75;;;154.00;1715.20;;;;;;5095237;28;20028;-57
2022/02/08 08:06:19;;;;;;;26.55;9.23;;;154.00;1715.20;;;;;;5095178;28;20032;-57
2022/02/08 08:08:48;;;;;;;26.70;10.02;;;154.10;1689.60;;;;;;5095321;28;20027;-57
2022/02/08 08:11:27;;;;;;;29.25;9.05;;;154.10;1715.20;;;;;;5094676;28;20493;-57
2022/02/08 08:19:25;;;;;;;23.35;9.02;;;154.20;1689.60;;;;;;5095021;28;20051;-57
2022/02/08 08:21:56;;;;;;;16.75;8.27;;;154.20;1689.60;;;;;;5094881;28;20020;-57
2022/02/08 08:24:28;;;;;;;17.55;8.15;;;154.30;1715.20;;;;;;5094902;28;20034;-56
2022/02/08 08:26:59;;;;;;;20.30;8.70;;;154.30;1715.20;;;;;;5094549;28;20533;-57
2022/02/08 08:29:34;;;;;;;20.75;8.68;;;154.30;1715.20;;;;;;5094784;28;20069;-57
2022/02/08 08:32:09;;;;;;;22.02;8.95;;;154.40;1715.20;;;;;;5094402;28;20043;-57
2022/02/08 08:34:42;;;;;;;17.15;7.63;;;154.50;1715.20;;;;;;5094555;28;20425;-58
2022/02/08 08:37:13;;;;;;;25.80;8.23;;;154.50;1689.60;;;;;;5094571;28;20035;-57
2022/02/08 08:39:48;;;;;;;18.83;7.85;;;179.20;1664.00;;;;;;5094513;28;20028;-57
2022/02/08 08:42:43;;;;;;;21.15;7.03;;;179.30;1664.00;;;;;;5094653;28;20381;-57
2022/02/08 08:50:56;;;;;;;22.75;6.40;;;179.50;1664.00;;;;;;5094755;28;20092;-57
2022/02/08 08:53:27;;;;;;;21.65;7.00;;;179.60;1638.40;;;;;;5094458;28;20474;-57
2022/02/08 08:55:59;;;;;;;17.05;6.30;;;179.70;1638.40;;;;;;5093992;28;20028;-57
2022/02/08 08:58:31;;;;;;;18.70;5.95;;;179.80;1638.40;;;;;;5094322;28;20039;-57
2022/02/08 09:01:03;;;;;;;16.45;6.10;;;179.90;1638.40;;;;;;5094229;28;20040;-57
2022/02/08 09:03:34;;;;;;;21.55;7.13;;;179.90;1638.40;;;;;;5094520;28;20039;-57
2022/02/08 09:06:07;;;;;;;16.20;5.35;;;180.10;1638.40;;;;;;5094175;28;20504;-58
2022/02/08 09:08:41;;;;;;;18.30;6.90;;;180.10;1612.80;;;;;;5094303;28;20032;-57
2022/02/08 09:14:15;;;;;;;16.80;6.13;;;204.90;1587.20;;;;;;5094162;28;20031;-57
2022/02/08 09:16:59;;;;;;;19.77;6.18;;;205.00;1561.60;;;;;;5094615;28;20019;-57
2022/02/08 09:27:57;;;;;;;17.83;6.38;;;205.30;1536.00;;;;;;5094005;28;20057;-58
2022/02/08 09:30:44;;;;;;;21.67;7.25;;;205.30;1536.00;;;;;;5093702;28;20074;-57
2022/02/08 09:33:15;;;;;;;21.00;8.93;;;205.40;1536.00;;;;;;5093547;28;20048;-57
2022/02/08 09:35:49;;;;;;;19.98;8.88;;;205.40;1536.00;;;;;;5093910;28;20025;-57
2022/02/08 09:38:19;;;;;;;19.02;7.63;;;205.60;1561.60;;;;;;5093869;28;20024;-58
2022/02/08 09:40:50;;;;;;;20.77;9.18;;;205.60;1510.40;;;;;;5093474;28;20024;-57
2022/02/08 09:43:22;;;;;;;17.15;7.22;;;205.70;1510.40;;;;;;5093775;28;20077;-57
2022/02/08 09:45:54;;;;;;;19.38;6.93;;;230.40;1484.80;;;;;;5094143;28;20032;-56
2022/02/08 09:48:31;;;;;;;22.02;8.50;;;230.40;1484.80;;;;;;5093763;28;20420;-56
2022/02/08 09:51:00;;;;;;;14.30;6.15;;;230.50;1484.80;;;;;;5093711;28;20107;-57
2022/02/08 09:53:36;;;;;;;20.95;5.47;;;230.60;1459.20;;;;;;5093744;28;20024;-57
2022/02/08 09:56:08;;;;;;;16.10;6.05;;;230.60;1459.20;;;;;;5093617;28;20032;-57
2022/02/08 09:58:40;;;;;;;16.92;7.03;;;230.70;1459.20;;;;;;5093854;28;20099;-57
2022/02/08 10:01:14;;;;;;;18.35;6.38;;;230.70;1408.00;;;;;;5093833;28;20028;-57
2022/02/08 10:04:01;;;;;;;17.27;6.07;;;230.80;1382.40;;;;;;5093022;28;20028;-57
2022/02/08 10:06:31;;;;;;;19.73;6.15;;;230.80;1382.40;;;;;;5093663;28;20024;-56
2022/02/08 10:09:09;;;;;;;16.17;5.40;;;230.90;1382.40;;;;;;5097327;28;20516;-57
2022/02/08 10:11:54;;;;;;;13.27;4.28;;;230.90;1382.40;;;;;;5097307;28;20025;-57
2022/02/08 10:14:40;;;;;;;14.50;4.28;;;231.00;1356.80;;;;;;5097867;28;20105;-57
2022/02/08 10:22:54;;;;;;;9.70;4.53;;;231.00;1331.20;;;;;;5097703;28;20031;-57
2022/02/08 10:25:50;;;;;;;14.10;4.28;;;231.10;1305.60;;;;;;5097346;28;20028;-57
2022/02/08 10:28:40;;;;;;;10.30;4.47;;;231.10;1305.60;;;;;;5097231;28;20021;-57
2022/02/08 10:39:26;;;;;;;10.68;4.18;;;256.00;1305.60;;;;;;5097141;28;20057;-57
2022/02/08 10:41:58;;;;;;;12.65;5.38;;;256.00;1280.00;;;;;;5096762;28;20024;-57
2022/02/08 10:44:36;;;;;;;13.27;4.03;;;256.10;1280.00;;;;;;5096752;28;20050;-57
2022/02/08 10:47:07;;;;;;;12.25;3.58;;;256.10;1280.00;;;;;;5097515;28;20024;-57
2022/02/08 10:49:39;;;;;;;12.23;4.07;;;256.20;1254.40;;;;;;5096938;28;20032;-57
2022/02/08 10:52:11;;;;;;;14.63;4.68;;;256.30;1228.80;;;;;;5096868;28;20405;-57
2022/02/08 10:54:48;;;;;;;11.43;4.50;;;256.30;1228.80;;;;;;5096878;28;20028;-57
2022/02/08 10:57:30;;;;;;;15.82;6.55;;;256.30;1228.80;;;;;;5096893;28;20028;-56
2022/02/08 11:00:05;;;;;;;23.75;9.05;;;256.40;1228.80;;;;;;5096681;28;20021;-57
2022/02/08 11:02:44;;;;;;;24.05;10.07;;;256.40;1228.80;;;;;;5097230;28;20366;-56
2022/02/08 11:08:28;;;;;;;14.95;7.63;;;256.40;1203.20;;;;;;5096568;28;20065;-57
2022/02/08 11:11:23;;;;;;;31.52;7.70;;;256.40;1228.80;;;;;;5096310;28;20036;-60
2022/02/08 11:14:18;;;;;;;22.33;9.00;;;256.40;1228.80;;;;;;5096383;28;20416;-58
2022/02/08 11:22:53;;;;;;;13.30;6.57;;;256.50;1203.20;;;;;;5096284;28;20077;-58
2022/02/08 11:25:38;;;;;;;16.88;6.50;;;256.40;1203.20;;;;;;5095919;28;20042;-58
2022/02/08 11:28:26;;;;;;;14.68;6.60;;;256.30;1203.20;;;;;;5095683;28;20061;-57
2022/02/08 11:53:21;;;;;;;52.83;29.13;;;256.90;1382.40;;;;;;5019955;28;20157;-65
2022/02/08 11:58:41;;;;;;;21.58;10.30;;;281.80;1203.20;;;;;;5021798;28;20026;-64
2022/02/08 12:01:23;;;;;;;18.30;12.15;;;281.80;1177.60;;;;;;5021702;28;20026;-64
2022/02/08 12:57:19;;;;;;;15.07;6.40;;;282.00;1126.40;;;;;;5110964;28;20062;-63
2022/02/08 13:00:09;;;;;;;17.25;6.45;;;282.00;1126.40;;;;;;5103103;28;20024;-64
2022/02/08 13:03:08;;;;;;;13.75;5.93;;;282.00;1126.40;;;;;;5086511;28;20034;-65
2022/02/08 14:01:46;;;;;;;96.15;46.83;;;282.10;1126.40;;;;;;5093703;28;20085;-60
2022/02/08 14:07:20;;;;;;;38.45;18.13;;;282.00;1152.00;;;;;;5031783;28;20048;-60
2022/02/08 14:09:59;;;;;;;31.67;15.13;;;281.90;1177.60;;;;;;5031232;28;20107;-67
2022/02/08 15:10:54;;;;;;;34.80;13.02;;;281.70;1254.40;;;;;;5103565;28;20111;-60
2022/02/08 15:13:26;;;;;;;38.63;12.95;;;281.70;1254.40;;;;;;5105330;28;20039;-61
2022/02/08 15:18:33;;;;;;;29.15;12.43;;;281.60;1280.00;;;;;;5104183;28;20012;-60
2022/02/08 15:21:09;;;;;;;23.80;11.10;;;256.90;1254.40;;;;;;5103952;28;20016;-61
2022/02/08 15:23:41;;;;;;;44.10;13.63;;;256.90;1254.40;;;;;;5101805;28;20063;-61
2022/02/08 15:26:14;;;;;;;45.08;15.73;;;256.90;1280.00;;;;;;5095477;28;20500;-64
2022/02/08 15:28:42;;;;;;;38.97;17.10;;;256.90;1305.60;;;;;;5096205;28;20481;-61
2022/02/08 15:31:15;;;;;;;40.40;16.70;;;256.80;1305.60;;;;;;5095941;28;20032;-61
2022/02/08 15:33:44;;;;;;;45.40;20.23;;;256.80;1305.60;;;;;;5096721;28;20508;-61
2022/02/08 15:36:17;;;;;;;45.42;21.75;;;256.70;1305.60;;;;;;5096080;28;20032;-64
2022/02/08 15:38:53;;;;;;;44.17;23.90;;;256.70;1305.60;;;;;;5095922;28;20463;-65
2022/02/08 15:41:25;;;;;;;43.40;24.30;;;256.60;1331.20;;;;;;5098154;28;20119;-66
2022/02/08 15:43:56;;;;;;;62.65;29.15;;;256.60;1331.20;;;;;;5094970;28;20533;-61
2022/02/08 15:46:26;;;;;;;126.18;60.83;;;256.50;1382.40;;;;;;5112378;28;20042;-61
2022/02/08 15:48:58;;;;;;;132.95;65.93;;;256.40;1382.40;;;;;;5115959;28;20527;-61
2022/02/08 15:51:34;;;;;;;138.32;68.00;;;256.40;1382.40;;;;;;5116164;28;20051;-61
2022/02/08 15:54:27;;;;;;;149.93;76.07;;;256.30;1382.40;;;;;;5116816;28;20024;-61
2022/02/08 15:57:41;;;;;;;132.80;66.28;;;256.20;1382.40;;;;;;5115773;28;20562;-61
2022/02/08 16:05:58;;;;;;;62.20;32.08;;;231.30;1408.00;;;;;;5115131;28;20516;-61
2022/02/08 16:08:43;;;;;;;55.13;28.33;;;231.30;1382.40;;;;;;5115761;28;20489;-61
2022/02/08 16:13:58;;;;;;;52.67;25.55;;;231.10;1382.40;;;;;;5115717;28;19925;-60
2022/02/08 16:48:34;;;;;;;134.95;60.83;;;230.70;1408.00;;;;;;5012424;28;20448;-61
2022/02/08 17:00:43;;;;;;;76.18;32.65;;;230.50;1433.60;;;;;;5012501;28;20025;-61
2022/02/08 17:03:23;;;;;;;92.85;37.70;;;230.50;1459.20;;;;;;5012452;28;20030;-61
2022/02/08 17:05:54;;;;;;;105.05;43.03;;;230.50;1433.60;;;;;;5012374;28;20038;-61
2022/02/08 17:08:27;;;;;;;95.70;39.40;;;230.50;1459.20;;;;;;5012602;28;20531;-60
2022/02/08 17:11:00;;;;;;;101.07;41.78;;;230.50;1459.20;;;;;;5012124;28;20034;-61
2022/02/08 17:46:46;;;;;;;114.70;53.90;;;230.40;1536.00;;;;;;5114061;28;20119;-61
2022/02/08 17:49:18;;;;;;;122.85;56.58;;;230.50;1510.40;;;;;;5114306;28;20027;-61
2022/02/08 17:51:49;;;;;;;121.82;56.00;;;230.50;1536.00;;;;;;5114106;28;20031;-61
2022/02/08 17:54:19;;;;;;;98.20;48.40;;;230.50;1510.40;;;;;;5114006;28;20056;-61
2022/02/08 17:56:53;;;;;;;109.97;52.85;;;230.50;1510.40;;;;;;5114054;28;20048;-61
2022/02/08 17:59:24;;;;;;;97.45;46.08;;;230.40;1510.40;;;;;;5114088;28;20049;-61
2022/02/08 18:01:56;;;;;;;86.70;39.58;;;230.50;1510.40;;;;;;5114218;28;20031;-61
2022/02/08 18:04:28;;;;;;;73.70;35.08;;;230.50;1484.80;;;;;;5114014;28;20046;-61
2022/02/08 18:06:59;;;;;;;58.47;28.40;;;230.50;1484.80;;;;;;5113720;28;20474;-60
2022/02/08 18:09:31;;;;;;;39.05;20.67;;;230.50;1484.80;;;;;;5113885;28;20020;-61
2022/02/08 18:12:03;;;;;;;41.58;18.02;;;230.50;1484.80;;;;;;5113795;28;20363;-61
2022/02/08 18:14:35;;;;;;;35.55;15.75;;;230.40;1484.80;;;;;;5114252;28;20484;-60
2022/02/08 18:17:12;;;;;;;38.22;17.75;;;230.40;1484.80;;;;;;5113851;28;20050;-61
2022/02/08 18:19:48;;;;;;;40.35;17.98;;;230.40;1484.80;;;;;;5113753;28;20027;-60
2022/02/08 18:27:38;;;;;;;37.08;16.63;;;230.40;1484.80;;;;;;5113749;28;20035;-61
2022/02/08 19:09:44;;;;;;;;;;;;;;;;;;;;;
2022/02/08 19:12:08;;;;;;;76.72;38.35;;;205.70;1510.40;;;;;;5116758;28;20030;-60
2022/02/08 19:20:01;;;;;;;110.97;59.17;;;205.70;1510.40;;;;;;5100682;28;20016;-61
2022/02/08 19:22:33;;;;;;;87.18;45.90;;;205.70;1510.40;;;;;;5095997;28;20032;-62
2022/02/08 19:24:59;;;;;;;84.45;46.80;;;205.70;1510.40;;;;;;5102642;28;20392;-61
2022/02/08 19:27:25;;;;;;;110.95;57.28;;;205.70;1510.40;;;;;;5103652;28;20030;-61
2022/02/08 19:29:50;;;;;;;117.28;59.42;;;205.70;1510.40;;;;;;5105770;28;20035;-62
2022/02/08 19:32:17;;;;;;;79.72;39.60;;;230.40;1510.40;;;;;;5104718;28;20044;-62
2022/02/08 19:34:48;;;;;;;77.55;39.55;;;230.40;1484.80;;;;;;5104112;28;20143;-63
2022/02/08 19:37:17;;;;;;;69.80;33.80;;;230.40;1484.80;;;;;;5104074;28;20024;-61
2022/02/08 19:39:47;;;;;;;64.28;30.35;;;230.40;1484.80;;;;;;5103811;28;20417;-61
2022/02/08 19:42:18;;;;;;;55.22;25.70;;;230.40;1484.80;;;;;;5099872;28;20114;-62
2022/02/08 19:44:57;;;;;;;108.40;25.27;;;230.40;1484.80;;;;;;5103727;28;20080;-63
2022/02/08 19:47:28;;;;;;;94.00;29.05;;;230.40;1536.00;;;;;;5103519;28;20070;-62
2022/02/08 19:50:00;;;;;;;75.45;29.33;;;230.40;1510.40;;;;;;5104522;28;20065;-62
2022/02/08 19:52:31;;;;;;;78.85;31.45;;;205.70;1510.40;;;;;;5100799;28;20063;-62
2022/02/08 19:57:52;;;;;;;104.10;49.92;;;230.40;1510.40;;;;;;5105487;28;20080;-63
2022/02/08 20:00:30;;;;;;;107.68;48.33;;;230.40;1484.80;;;;;;5105197;28;20024;-65
2022/02/08 20:03:03;;;;;;;80.80;37.38;;;230.40;1484.80;;;;;;5103249;28;20028;-67
2022/02/08 20:05:33;;;;;;;69.70;32.35;;;230.40;1510.40;;;;;;5101448;28;20040;-75
2022/02/08 20:08:02;;;;;;;85.22;37.42;;;230.40;1510.40;;;;;;5103330;28;20023;-63
2022/02/08 20:10:32;;;;;;;99.70;42.75;;;230.40;1510.40;;;;;;5100596;28;20078;-65
2022/02/08 20:13:03;;;;;;;103.60;44.80;;;230.40;1510.40;;;;;;5103164;28;20023;-65
2022/02/08 20:15:31;;;;;;;102.57;44.47;;;230.40;1510.40;;;;;;5101024;28;20024;-68
2022/02/08 20:18:02;;;;;;;105.85;45.85;;;230.40;1536.00;;;;;;5103472;28;20400;-65
2022/02/08 20:20:33;;;;;;;101.22;40.35;;;230.40;1536.00;;;;;;5100831;28;20027;-66
2022/02/08 20:23:04;;;;;;;99.03;40.63;;;205.70;1536.00;;;;;;5103168;28;20027;-64
2022/02/08 20:25:37;;;;;;;71.65;34.83;;;230.40;1536.00;;;;;;5101307;28;20386;-66
2022/02/08 20:28:13;;;;;;;80.35;33.08;;;230.60;1587.20;;;;;;5102685;28;20094;-66
2022/02/08 20:30:40;;;;;;;76.20;32.85;;;230.90;1561.60;;;;;;5103034;28;20536;-64
2022/02/08 20:33:09;;;;;;;57.17;27.77;;;231.10;1510.40;;;;;;5096477;28;20370;-65
2022/02/08 20:35:40;;;;;;;57.03;26.63;;;231.10;1510.40;;;;;;5104140;28;20095;-64
2022/02/08 20:38:14;;;;;;;45.15;21.65;;;231.00;1510.40;;;;;;5099799;28;20020;-65
2022/02/08 20:40:47;;;;;;;44.70;21.30;;;231.00;1510.40;;;;;;5102594;28;20020;-64
2022/02/08 20:43:17;;;;;;;45.45;22.10;;;231.00;1510.40;;;;;;5097793;28;20393;-65
2022/02/08 20:45:44;;;;;;;52.95;24.00;;;230.90;1484.80;;;;;;5094676;28;20066;-65
2022/02/08 20:48:13;;;;;;;115.05;53.55;;;230.90;1510.40;;;;;;5094789;28;20390;-65
2022/02/08 20:50:46;;;;;;;150.90;71.30;;;230.80;1510.40;;;;;;5094233;28;20039;-64